sensor_id;sensor_type;location;lat;lon;timestamp;temperature;humidity
39875;DHT22;25547;52.530;13.194;2023-05-07T00:01:38;9.50;99.90
39875;DHT22;25547;52.530;13.194;2023-05-07T00:04:06;9.40;99.90
39875;DHT22;25547;52.530;13.194;2023-05-07T00:06:34;9.40;99.90
39875;DHT22;25547;52.530;13.194;2023-05-07T00:09:00;9.40;99.90
39875;DHT22;25547;52.530;13.194;2023-05-07T00:11:27;9.40;99.90
39875;DHT22;25547;52.530;13.194;2023-05-07T00:13:53;9.30;99.90
39875;DHT22;25547;52.530;13.194;2023-05-07T00:16:18;9.40;99.90
39875;DHT22;25547;52.530;13.194;2023-05-07T00:18:44;9.40;99.90
39875;DHT22;25547;52.530;13.194;2023-05-07T00:21:13;9.40;99.90
39875;DHT22;25547;52.530;13.194;2023-05-07T00:23:38;9.40;99.90
39875;DHT22;25547;52.530;13.194;2023-05-07T00:26:04;9.40;99.90
39875;DHT22;25547;52.530;13.194;2023-05-07T00:28:30;9.50;99.90
39875;DHT22;25547;52.530;13.194;2023-05-07T00:30:58;9.50;99.90
39875;DHT22;25547;52.530;13.194;2023-05-07T00:33:26;9.40;99.90
39875;DHT22;25547;52.530;13.194;2023-05-07T00:35:52;9.40;99.90
39875;DHT22;25547;52.530;13.194;2023-05-07T00:38:19;9.30;99.90
39875;DHT22;25547;52.530;13.194;2023-05-07T00:40:45;9.40;99.90
39875;DHT22;25547;52.530;13.194;2023-05-07T00:43:11;9.30;99.90
39875;DHT22;25547;52.530;13.194;2023-05-07T00:45:38;9.40;99.90
39875;DHT22;25547;52.530;13.194;2023-05-07T00:48:04;9.30;99.90
39875;DHT22;25547;52.530;13.194;2023-05-07T00:50:31;9.30;99.90
39875;DHT22;25547;52.530;13.194;2023-05-07T00:53:02;9.30;99.90
39875;DHT22;25547;52.530;13.194;2023-05-07T00:55:28;9.30;99.90
39875;DHT22;25547;52.530;13.194;2023-05-07T00:57:54;9.30;99.90
39875;DHT22;25547;52.530;13.194;2023-05-07T01:00:23;9.20;99.90
39875;DHT22;25547;52.530;13.194;2023-05-07T01:02:50;9.20;99.90
39875;DHT22;25547;52.530;13.194;2023-05-07T01:05:17;9.30;99.90
39875;DHT22;25547;52.530;13.194;2023-05-07T01:07:46;9.30;99.90
39875;DHT22;25547;52.530;13.194;2023-05-07T01:10:12;9.30;99.90
39875;DHT22;25547;52.530;13.194;2023-05-07T01:12:39;9.40;99.90
39875;DHT22;25547;52.530;13.194;2023-05-07T01:15:10;9.40;99.90
39875;DHT22;25547;52.530;13.194;2023-05-07T01:17:37;9.40;99.90
39875;DHT22;25547;52.530;13.194;2023-05-07T01:20:06;9.40;99.90
39875;DHT22;25547;52.530;13.194;2023-05-07T01:22:39;9.40;99.90
39875;DHT22;25547;52.530;13.194;2023-05-07T01:25:07;9.50;99.90
39875;DHT22;25547;52.530;13.194;2023-05-07T01:27:33;9.50;99.90
39875;DHT22;25547;52.530;13.194;2023-05-07T01:30:00;9.60;99.90
39875;DHT22;25547;52.530;13.194;2023-05-07T01:32:53;9.50;99.90
39875;DHT22;25547;52.530;13.194;2023-05-07T01:35:26;9.50;99.90
39875;DHT22;25547;52.530;13.194;2023-05-07T01:37:53;9.50;99.90
39875;DHT22;25547;52.530;13.194;2023-05-07T01:40:22;9.40;99.90
39875;DHT22;25547;52.530;13.194;2023-05-07T01:42:49;9.50;99.90
39875;DHT22;25547;52.530;13.194;2023-05-07T01:45:17;9.30;99.90
39875;DHT22;25547;52.530;13.194;2023-05-07T01:47:43;9.30;99.90
39875;DHT22;25547;52.530;13.194;2023-05-07T01:50:10;9.30;99.90
39875;DHT22;25547;52.530;13.194;2023-05-07T01:52:39;9.30;99.90
39875;DHT22;25547;52.530;13.194;2023-05-07T01:55:06;9.20;99.90
39875;DHT22;25547;52.530;13.194;2023-05-07T01:57:32;9.30;99.90
39875;DHT22;25547;52.530;13.194;2023-05-07T01:59:57;9.30;99.90
39875;DHT22;25547;52.530;13.194;2023-05-07T02:02:23;9.30;99.90
39875;DHT22;25547;52.530;13.194;2023-05-07T02:04:51;9.30;99.90
39875;DHT22;25547;52.530;13.194;2023-05-07T02:07:17;9.30;99.90
39875;DHT22;25547;52.530;13.194;2023-05-07T02:09:42;9.30;99.90
39875;DHT22;25547;52.530;13.194;2023-05-07T02:12:10;9.30;99.90
39875;DHT22;25547;52.530;13.194;2023-05-07T02:14:36;9.20;99.90
39875;DHT22;25547;52.530;13.194;2023-05-07T02:17:04;9.20;99.90
39875;DHT22;25547;52.530;13.194;2023-05-07T02:19:34;9.20;99.90
39875;DHT22;25547;52.530;13.194;2023-05-07T02:22:00;9.20;99.90
39875;DHT22;25547;52.530;13.194;2023-05-07T02:24:28;9.20;99.90
39875;DHT22;25547;52.530;13.194;2023-05-07T02:26:56;9.20;99.90
39875;DHT22;25547;52.530;13.194;2023-05-07T02:29:24;9.20;99.90
39875;DHT22;25547;52.530;13.194;2023-05-07T02:31:52;9.20;99.90
39875;DHT22;25547;52.530;13.194;2023-05-07T02:34:21;9.20;99.90
39875;DHT22;25547;52.530;13.194;2023-05-07T02:36:46;9.20;99.90
39875;DHT22;25547;52.530;13.194;2023-05-07T02:39:16;9.20;99.90
39875;DHT22;25547;52.530;13.194;2023-05-07T02:41:42;9.20;99.90
39875;DHT22;25547;52.530;13.194;2023-05-07T02:44:07;9.20;99.90
39875;DHT22;25547;52.530;13.194;2023-05-07T02:46:35;9.20;99.90
39875;DHT22;25547;52.530;13.194;2023-05-07T02:49:01;9.20;99.90
39875;DHT22;25547;52.530;13.194;2023-05-07T02:51:26;9.30;99.90
39875;DHT22;25547;52.530;13.194;2023-05-07T02:53:54;9.20;99.90
39875;DHT22;25547;52.530;13.194;2023-05-07T02:56:21;9.20;99.90
39875;DHT22;25547;52.530;13.194;2023-05-07T02:58:47;9.10;99.90
39875;DHT22;25547;52.530;13.194;2023-05-07T03:01:13;9.20;99.90
39875;DHT22;25547;52.530;13.194;2023-05-07T03:03:40;9.20;99.90
39875;DHT22;25547;52.530;13.194;2023-05-07T03:06:06;9.20;99.90
39875;DHT22;25547;52.530;13.194;2023-05-07T03:08:34;9.20;99.90
39875;DHT22;25547;52.530;13.194;2023-05-07T03:11:03;9.20;99.90
39875;DHT22;25547;52.530;13.194;2023-05-07T03:13:33;9.20;99.90
39875;DHT22;25547;52.530;13.194;2023-05-07T03:16:02;9.10;99.90
39875;DHT22;25547;52.530;13.194;2023-05-07T03:18:31;9.10;99.90
39875;DHT22;25547;52.530;13.194;2023-05-07T03:21:03;9.10;99.90
39875;DHT22;25547;52.530;13.194;2023-05-07T03:23:29;9.20;99.90
39875;DHT22;25547;52.530;13.194;2023-05-07T03:25:55;9.20;99.90
39875;DHT22;25547;52.530;13.194;2023-05-07T03:28:20;9.20;99.90
39875;DHT22;25547;52.530;13.194;2023-05-07T03:30:46;9.20;99.90
39875;DHT22;25547;52.530;13.194;2023-05-07T03:33:11;9.20;99.90
39875;DHT22;25547;52.530;13.194;2023-05-07T03:35:39;9.20;99.90
39875;DHT22;25547;52.530;13.194;2023-05-07T03:38:07;9.30;99.90
39875;DHT22;25547;52.530;13.194;2023-05-07T03:40:35;9.10;99.90
39875;DHT22;25547;52.530;13.194;2023-05-07T03:43:01;9.20;99.90
39875;DHT22;25547;52.530;13.194;2023-05-07T03:45:27;9.20;99.90
39875;DHT22;25547;52.530;13.194;2023-05-07T03:47:52;9.20;99.90
39875;DHT22;25547;52.530;13.194;2023-05-07T03:50:20;9.20;99.90
39875;DHT22;25547;52.530;13.194;2023-05-07T03:52:46;9.20;99.90
39875;DHT22;25547;52.530;13.194;2023-05-07T03:55:16;9.20;99.90
39875;DHT22;25547;52.530;13.194;2023-05-07T03:57:44;9.20;99.90
39875;DHT22;25547;52.530;13.194;2023-05-07T04:00:10;9.20;99.90
39875;DHT22;25547;52.530;13.194;2023-05-07T04:02:36;9.20;99.90
39875;DHT22;25547;52.530;13.194;2023-05-07T04:05:04;9.20;99.90
39875;DHT22;25547;52.530;13.194;2023-05-07T04:07:32;9.10;99.90
39875;DHT22;25547;52.530;13.194;2023-05-07T04:09:58;9.20;99.90
39875;DHT22;25547;52.530;13.194;2023-05-07T04:12:24;9.20;99.90
39875;DHT22;25547;52.530;13.194;2023-05-07T04:14:49;9.20;99.90
39875;DHT22;25547;52.530;13.194;2023-05-07T04:17:17;9.10;99.90
39875;DHT22;25547;52.530;13.194;2023-05-07T04:19:45;9.20;99.90
39875;DHT22;25547;52.530;13.194;2023-05-07T04:22:12;9.20;99.90
39875;DHT22;25547;52.530;13.194;2023-05-07T04:24:39;9.20;99.90
39875;DHT22;25547;52.530;13.194;2023-05-07T04:27:07;9.30;99.90
39875;DHT22;25547;52.530;13.194;2023-05-07T04:29:35;9.20;99.90
39875;DHT22;25547;52.530;13.194;2023-05-07T04:32:01;9.20;99.90
39875;DHT22;25547;52.530;13.194;2023-05-07T04:34:27;9.20;99.90
39875;DHT22;25547;52.530;13.194;2023-05-07T04:36:52;9.20;99.90
39875;DHT22;25547;52.530;13.194;2023-05-07T04:39:18;9.30;99.90
39875;DHT22;25547;52.530;13.194;2023-05-07T04:41:43;9.30;99.90
39875;DHT22;25547;52.530;13.194;2023-05-07T04:44:11;9.20;99.90
39875;DHT22;25547;52.530;13.194;2023-05-07T04:46:37;9.10;99.90
39875;DHT22;25547;52.530;13.194;2023-05-07T04:49:03;9.10;99.90
39875;DHT22;25547;52.530;13.194;2023-05-07T04:51:28;9.20;99.90
39875;DHT22;25547;52.530;13.194;2023-05-07T04:53:54;9.10;99.90
39875;DHT22;25547;52.530;13.194;2023-05-07T04:56:20;9.10;99.90
39875;DHT22;25547;52.530;13.194;2023-05-07T04:58:46;9.10;99.90
39875;DHT22;25547;52.530;13.194;2023-05-07T05:01:11;9.10;99.90
39875;DHT22;25547;52.530;13.194;2023-05-07T05:03:37;9.10;99.90
39875;DHT22;25547;52.530;13.194;2023-05-07T05:06:03;9.00;99.90
39875;DHT22;25547;52.530;13.194;2023-05-07T05:08:33;9.10;99.90
39875;DHT22;25547;52.530;13.194;2023-05-07T05:11:03;9.10;99.90
39875;DHT22;25547;52.530;13.194;2023-05-07T05:13:29;9.10;99.90
39875;DHT22;25547;52.530;13.194;2023-05-07T05:15:55;9.10;99.90
39875;DHT22;25547;52.530;13.194;2023-05-07T05:18:23;9.10;99.90
39875;DHT22;25547;52.530;13.194;2023-05-07T05:20:51;9.10;99.90
39875;DHT22;25547;52.530;13.194;2023-05-07T05:23:17;9.10;99.90
39875;DHT22;25547;52.530;13.194;2023-05-07T05:25:43;9.10;99.90
39875;DHT22;25547;52.530;13.194;2023-05-07T05:28:08;9.20;99.90
39875;DHT22;25547;52.530;13.194;2023-05-07T05:30:36;9.20;99.90
39875;DHT22;25547;52.530;13.194;2023-05-07T05:33:04;9.30;99.90
39875;DHT22;25547;52.530;13.194;2023-05-07T05:35:30;9.40;99.90
39875;DHT22;25547;52.530;13.194;2023-05-07T05:37:56;9.50;99.90
39875;DHT22;25547;52.530;13.194;2023-05-07T05:40:21;9.50;99.90
39875;DHT22;25547;52.530;13.194;2023-05-07T05:42:49;9.60;99.90
39875;DHT22;25547;52.530;13.194;2023-05-07T05:45:18;9.50;99.90
39875;DHT22;25547;52.530;13.194;2023-05-07T05:47:43;9.40;99.90
39875;DHT22;25547;52.530;13.194;2023-05-07T05:50:09;9.50;99.90
39875;DHT22;25547;52.530;13.194;2023-05-07T05:52:37;9.40;99.90
39875;DHT22;25547;52.530;13.194;2023-05-07T05:55:03;9.50;99.90
39875;DHT22;25547;52.530;13.194;2023-05-07T05:57:29;9.70;99.90
39875;DHT22;25547;52.530;13.194;2023-05-07T05:59:55;9.70;99.90
39875;DHT22;25547;52.530;13.194;2023-05-07T06:02:20;9.80;99.90
39875;DHT22;25547;52.530;13.194;2023-05-07T06:04:48;9.80;99.90
39875;DHT22;25547;52.530;13.194;2023-05-07T06:07:16;9.80;99.90
39875;DHT22;25547;52.530;13.194;2023-05-07T06:09:47;9.90;99.90
39875;DHT22;25547;52.530;13.194;2023-05-07T06:12:12;10.10;99.90
39875;DHT22;25547;52.530;13.194;2023-05-07T06:14:43;10.40;99.90
39875;DHT22;25547;52.530;13.194;2023-05-07T06:17:10;10.70;99.90
39875;DHT22;25547;52.530;13.194;2023-05-07T06:19:36;10.60;99.90
39875;DHT22;25547;52.530;13.194;2023-05-07T06:22:02;10.40;99.90
39875;DHT22;25547;52.530;13.194;2023-05-07T06:24:28;10.40;99.90
39875;DHT22;25547;52.530;13.194;2023-05-07T06:26:54;10.40;99.90
39875;DHT22;25547;52.530;13.194;2023-05-07T06:29:22;10.50;99.90
39875;DHT22;25547;52.530;13.194;2023-05-07T06:31:48;10.70;99.90
39875;DHT22;25547;52.530;13.194;2023-05-07T06:34:15;10.80;99.90
39875;DHT22;25547;52.530;13.194;2023-05-07T06:36:41;10.80;99.90
39875;DHT22;25547;52.530;13.194;2023-05-07T06:39:07;10.70;99.90
39875;DHT22;25547;52.530;13.194;2023-05-07T06:41:32;10.70;99.90
39875;DHT22;25547;52.530;13.194;2023-05-07T06:43:58;10.70;99.90
39875;DHT22;25547;52.530;13.194;2023-05-07T06:46:24;10.60;99.90
39875;DHT22;25547;52.530;13.194;2023-05-07T06:48:51;10.50;99.90
39875;DHT22;25547;52.530;13.194;2023-05-07T06:51:18;10.40;99.90
39875;DHT22;25547;52.530;13.194;2023-05-07T06:53:43;10.30;99.90
39875;DHT22;25547;52.530;13.194;2023-05-07T06:56:11;10.20;99.90
39875;DHT22;25547;52.530;13.194;2023-05-07T06:58:37;10.20;99.90
39875;DHT22;25547;52.530;13.194;2023-05-07T07:01:05;10.10;99.90
39875;DHT22;25547;52.530;13.194;2023-05-07T07:03:31;10.50;99.90
39875;DHT22;25547;52.530;13.194;2023-05-07T07:05:56;11.00;99.90
39875;DHT22;25547;52.530;13.194;2023-05-07T07:08:22;12.20;99.90
39875;DHT22;25547;52.530;13.194;2023-05-07T07:10:48;11.70;99.90
39875;DHT22;25547;52.530;13.194;2023-05-07T07:13:14;11.90;99.90
39875;DHT22;25547;52.530;13.194;2023-05-07T07:15:42;12.40;99.90
39875;DHT22;25547;52.530;13.194;2023-05-07T07:18:08;12.90;99.90
39875;DHT22;25547;52.530;13.194;2023-05-07T07:20:34;13.90;99.90
39875;DHT22;25547;52.530;13.194;2023-05-07T07:23:00;12.90;99.90
39875;DHT22;25547;52.530;13.194;2023-05-07T07:25:27;12.90;99.90
39875;DHT22;25547;52.530;13.194;2023-05-07T07:27:55;12.00;99.90
39875;DHT22;25547;52.530;13.194;2023-05-07T07:30:21;14.40;99.90
39875;DHT22;25547;52.530;13.194;2023-05-07T07:32:47;16.10;96.10
39875;DHT22;25547;52.530;13.194;2023-05-07T07:35:12;20.80;76.90
39875;DHT22;25547;52.530;13.194;2023-05-07T07:37:38;17.60;81.50
39875;DHT22;25547;52.530;13.194;2023-05-07T07:40:04;16.40;84.30
39875;DHT22;25547;52.530;13.194;2023-05-07T07:42:30;18.90;78.60
39875;DHT22;25547;52.530;13.194;2023-05-07T07:44:58;19.30;71.10
39875;DHT22;25547;52.530;13.194;2023-05-07T07:47:24;18.20;73.30
39875;DHT22;25547;52.530;13.194;2023-05-07T07:49:50;18.70;71.10
39875;DHT22;25547;52.530;13.194;2023-05-07T07:52:20;18.00;75.30
39875;DHT22;25547;52.530;13.194;2023-05-07T07:54:46;19.50;69.40
39875;DHT22;25547;52.530;13.194;2023-05-07T07:57:11;17.70;71.70
39875;DHT22;25547;52.530;13.194;2023-05-07T07:59:37;15.00;81.50
39875;DHT22;25547;52.530;13.194;2023-05-07T08:02:05;15.20;86.50
39875;DHT22;25547;52.530;13.194;2023-05-07T08:04:33;15.20;84.30
39875;DHT22;25547;52.530;13.194;2023-05-07T08:07:04;17.40;75.50
39875;DHT22;25547;52.530;13.194;2023-05-07T08:09:32;17.80;73.30
39875;DHT22;25547;52.530;13.194;2023-05-07T08:12:00;19.40;69.10
39875;DHT22;25547;52.530;13.194;2023-05-07T08:14:26;21.80;61.10
39875;DHT22;25547;52.530;13.194;2023-05-07T08:16:54;23.40;59.10
39875;DHT22;25547;52.530;13.194;2023-05-07T08:19:22;21.80;57.60
39875;DHT22;25547;52.530;13.194;2023-05-07T08:21:48;22.50;58.90
39875;DHT22;25547;52.530;13.194;2023-05-07T08:24:14;26.10;54.60
39875;DHT22;25547;52.530;13.194;2023-05-07T08:26:40;25.30;49.20
39875;DHT22;25547;52.530;13.194;2023-05-07T08:29:06;24.60;50.20
39875;DHT22;25547;52.530;13.194;2023-05-07T08:31:35;23.20;51.20
39875;DHT22;25547;52.530;13.194;2023-05-07T08:34:03;24.20;52.50
39875;DHT22;25547;52.530;13.194;2023-05-07T08:36:32;23.30;50.90
39875;DHT22;25547;52.530;13.194;2023-05-07T08:38:57;23.80;51.00
39875;DHT22;25547;52.530;13.194;2023-05-07T08:41:23;19.20;58.50
39875;DHT22;25547;52.530;13.194;2023-05-07T08:43:50;17.40;65.60
39875;DHT22;25547;52.530;13.194;2023-05-07T08:46:25;15.80;72.80
39875;DHT22;25547;52.530;13.194;2023-05-07T08:48:51;15.00;76.20
39875;DHT22;25547;52.530;13.194;2023-05-07T08:51:23;15.10;75.60
39875;DHT22;25547;52.530;13.194;2023-05-07T08:53:52;15.50;77.10
39875;DHT22;25547;52.530;13.194;2023-05-07T08:56:17;15.80;77.20
39875;DHT22;25547;52.530;13.194;2023-05-07T08:58:45;14.70;78.00
39875;DHT22;25547;52.530;13.194;2023-05-07T09:01:15;14.50;80.90
39875;DHT22;25547;52.530;13.194;2023-05-07T09:03:44;14.70;81.70
39875;DHT22;25547;52.530;13.194;2023-05-07T09:06:11;15.20;80.00
39875;DHT22;25547;52.530;13.194;2023-05-07T09:08:36;15.20;79.40
39875;DHT22;25547;52.530;13.194;2023-05-07T09:11:05;15.50;80.40
39875;DHT22;25547;52.530;13.194;2023-05-07T09:13:30;14.90;79.10
39875;DHT22;25547;52.530;13.194;2023-05-07T09:16:08;14.80;80.30
39875;DHT22;25547;52.530;13.194;2023-05-07T09:18:34;14.70;81.70
39875;DHT22;25547;52.530;13.194;2023-05-07T09:21:00;15.10;81.90
39875;DHT22;25547;52.530;13.194;2023-05-07T09:23:26;15.20;81.00
39875;DHT22;25547;52.530;13.194;2023-05-07T09:26:02;14.80;80.90
39875;DHT22;25547;52.530;13.194;2023-05-07T09:28:27;15.10;82.00
39875;DHT22;25547;52.530;13.194;2023-05-07T09:30:56;14.90;80.10
39875;DHT22;25547;52.530;13.194;2023-05-07T09:33:21;14.70;81.90
39875;DHT22;25547;52.530;13.194;2023-05-07T09:35:53;14.40;82.90
39875;DHT22;25547;52.530;13.194;2023-05-07T09:38:20;14.80;83.00
39875;DHT22;25547;52.530;13.194;2023-05-07T09:40:47;14.90;82.00
39875;DHT22;25547;52.530;13.194;2023-05-07T09:43:15;14.60;83.40
39875;DHT22;25547;52.530;13.194;2023-05-07T09:45:41;14.50;83.60
39875;DHT22;25547;52.530;13.194;2023-05-07T09:48:06;14.70;83.50
39875;DHT22;25547;52.530;13.194;2023-05-07T09:50:36;15.00;82.30
39875;DHT22;25547;52.530;13.194;2023-05-07T09:53:10;14.80;82.70
39875;DHT22;25547;52.530;13.194;2023-05-07T09:55:36;14.90;83.30
39875;DHT22;25547;52.530;13.194;2023-05-07T09:58:04;14.70;83.30
39875;DHT22;25547;52.530;13.194;2023-05-07T10:00:31;14.50;83.50
39875;DHT22;25547;52.530;13.194;2023-05-07T10:02:58;14.30;84.40
39875;DHT22;25547;52.530;13.194;2023-05-07T10:05:25;14.40;83.90
39875;DHT22;25547;52.530;13.194;2023-05-07T10:07:53;14.40;85.70
39875;DHT22;25547;52.530;13.194;2023-05-07T10:10:22;14.60;85.20
39875;DHT22;25547;52.530;13.194;2023-05-07T10:12:47;15.00;84.70
39875;DHT22;25547;52.530;13.194;2023-05-07T10:15:14;14.80;84.40
39875;DHT22;25547;52.530;13.194;2023-05-07T10:17:41;14.60;84.90
39875;DHT22;25547;52.530;13.194;2023-05-07T10:20:08;14.50;84.30
39875;DHT22;25547;52.530;13.194;2023-05-07T10:22:49;14.30;85.90
39875;DHT22;25547;52.530;13.194;2023-05-07T10:25:31;14.20;85.80
39875;DHT22;25547;52.530;13.194;2023-05-07T10:28:04;14.40;85.20
39875;DHT22;25547;52.530;13.194;2023-05-07T10:33:23;14.30;84.70
39875;DHT22;25547;52.530;13.194;2023-05-07T10:35:51;13.80;85.80
39875;DHT22;25547;52.530;13.194;2023-05-07T10:38:19;13.70;85.50
39875;DHT22;25547;52.530;13.194;2023-05-07T10:40:46;14.00;86.30
39875;DHT22;25547;52.530;13.194;2023-05-07T10:43:11;14.10;86.10
39875;DHT22;25547;52.530;13.194;2023-05-07T10:45:37;14.40;86.20
39875;DHT22;25547;52.530;13.194;2023-05-07T10:50:44;14.00;84.30
39875;DHT22;25547;52.530;13.194;2023-05-07T10:55:44;14.10;85.20
39875;DHT22;25547;52.530;13.194;2023-05-07T11:00:48;14.10;85.70
39875;DHT22;25547;52.530;13.194;2023-05-07T11:03:20;14.00;85.10
39875;DHT22;25547;52.530;13.194;2023-05-07T11:05:47;14.30;84.80
39875;DHT22;25547;52.530;13.194;2023-05-07T11:08:57;14.50;83.60
39875;DHT22;25547;52.530;13.194;2023-05-07T11:11:59;14.50;82.10
39875;DHT22;25547;52.530;13.194;2023-05-07T11:14:43;14.60;82.60
39875;DHT22;25547;52.530;13.194;2023-05-07T11:17:13;14.50;82.90
39875;DHT22;25547;52.530;13.194;2023-05-07T11:19:55;14.50;82.50
39875;DHT22;25547;52.530;13.194;2023-05-07T11:25:05;14.90;82.10
39875;DHT22;25547;52.530;13.194;2023-05-07T11:27:32;14.50;81.90
39875;DHT22;25547;52.530;13.194;2023-05-07T11:29:58;14.50;83.60
39875;DHT22;25547;52.530;13.194;2023-05-07T11:32:24;14.50;82.40
39875;DHT22;25547;52.530;13.194;2023-05-07T11:34:54;14.70;82.90
39875;DHT22;25547;52.530;13.194;2023-05-07T11:37:23;15.00;81.80
39875;DHT22;25547;52.530;13.194;2023-05-07T11:39:50;14.90;80.00
39875;DHT22;25547;52.530;13.194;2023-05-07T11:42:34;14.80;80.50
39875;DHT22;25547;52.530;13.194;2023-05-07T11:45:01;14.70;80.20
39875;DHT22;25547;52.530;13.194;2023-05-07T11:47:30;14.50;80.30
39875;DHT22;25547;52.530;13.194;2023-05-07T11:49:56;14.50;81.70
39875;DHT22;25547;52.530;13.194;2023-05-07T11:52:23;14.70;81.10
39875;DHT22;25547;52.530;13.194;2023-05-07T11:54:53;14.70;79.20
39875;DHT22;25547;52.530;13.194;2023-05-07T11:57:25;14.80;78.60
39875;DHT22;25547;52.530;13.194;2023-05-07T11:59:58;15.10;78.90
39875;DHT22;25547;52.530;13.194;2023-05-07T12:02:24;15.00;77.70
39875;DHT22;25547;52.530;13.194;2023-05-07T12:04:54;15.00;77.30
39875;DHT22;25547;52.530;13.194;2023-05-07T12:07:20;15.00;77.90
39875;DHT22;25547;52.530;13.194;2023-05-07T12:09:48;14.90;80.10
39875;DHT22;25547;52.530;13.194;2023-05-07T12:12:14;14.80;80.60
39875;DHT22;25547;52.530;13.194;2023-05-07T12:14:45;14.90;80.60
39875;DHT22;25547;52.530;13.194;2023-05-07T12:17:13;15.10;80.20
39875;DHT22;25547;52.530;13.194;2023-05-07T12:19:41;15.10;79.70
39875;DHT22;25547;52.530;13.194;2023-05-07T12:22:10;15.00;79.40
39875;DHT22;25547;52.530;13.194;2023-05-07T12:24:56;14.70;79.70
39875;DHT22;25547;52.530;13.194;2023-05-07T12:27:25;14.60;80.40
39875;DHT22;25547;52.530;13.194;2023-05-07T12:29:54;14.90;80.90
39875;DHT22;25547;52.530;13.194;2023-05-07T12:32:22;15.00;80.50
39875;DHT22;25547;52.530;13.194;2023-05-07T12:34:51;15.10;79.90
39875;DHT22;25547;52.530;13.194;2023-05-07T12:37:22;15.20;80.30
39875;DHT22;25547;52.530;13.194;2023-05-07T12:39:48;15.20;79.70
39875;DHT22;25547;52.530;13.194;2023-05-07T12:42:15;15.20;77.30
39875;DHT22;25547;52.530;13.194;2023-05-07T12:44:41;15.40;77.00
39875;DHT22;25547;52.530;13.194;2023-05-07T12:47:10;15.30;77.00
39875;DHT22;25547;52.530;13.194;2023-05-07T12:49:36;15.30;77.90
39875;DHT22;25547;52.530;13.194;2023-05-07T12:54:37;15.40;78.00
39875;DHT22;25547;52.530;13.194;2023-05-07T12:57:07;15.70;77.60
39875;DHT22;25547;52.530;13.194;2023-05-07T13:02:04;15.60;76.10
39875;DHT22;25547;52.530;13.194;2023-05-07T13:04:32;15.80;76.40
39875;DHT22;25547;52.530;13.194;2023-05-07T13:06:58;15.80;75.50
39875;DHT22;25547;52.530;13.194;2023-05-07T13:09:24;15.90;75.30
39875;DHT22;25547;52.530;13.194;2023-05-07T13:11:52;15.80;74.30
39875;DHT22;25547;52.530;13.194;2023-05-07T13:14:17;15.60;74.80
39875;DHT22;25547;52.530;13.194;2023-05-07T13:16:45;15.40;75.30
39875;DHT22;25547;52.530;13.194;2023-05-07T13:19:11;15.70;75.40
39875;DHT22;25547;52.530;13.194;2023-05-07T13:21:36;15.90;74.90
39875;DHT22;25547;52.530;13.194;2023-05-07T13:24:04;15.70;74.10
39875;DHT22;25547;52.530;13.194;2023-05-07T13:26:32;15.50;74.80
39875;DHT22;25547;52.530;13.194;2023-05-07T13:28:58;15.70;75.00
39875;DHT22;25547;52.530;13.194;2023-05-07T13:31:24;15.80;75.00
39875;DHT22;25547;52.530;13.194;2023-05-07T13:33:50;15.80;75.10
39875;DHT22;25547;52.530;13.194;2023-05-07T13:36:16;15.70;75.60
39875;DHT22;25547;52.530;13.194;2023-05-07T13:38:44;15.70;74.40
39875;DHT22;25547;52.530;13.194;2023-05-07T13:41:09;15.60;75.10
39875;DHT22;25547;52.530;13.194;2023-05-07T13:43:35;15.60;75.10
39875;DHT22;25547;52.530;13.194;2023-05-07T13:46:01;15.50;76.00
39875;DHT22;25547;52.530;13.194;2023-05-07T13:48:27;15.40;75.40
39875;DHT22;25547;52.530;13.194;2023-05-07T13:50:53;15.40;75.60
39875;DHT22;25547;52.530;13.194;2023-05-07T13:53:19;15.40;75.50
39875;DHT22;25547;52.530;13.194;2023-05-07T13:55:45;15.40;75.00
39875;DHT22;25547;52.530;13.194;2023-05-07T13:58:13;15.50;76.00
39875;DHT22;25547;52.530;13.194;2023-05-07T14:00:39;15.60;74.80
39875;DHT22;25547;52.530;13.194;2023-05-07T14:03:05;15.60;74.80
39875;DHT22;25547;52.530;13.194;2023-05-07T14:05:33;15.40;74.50
39875;DHT22;25547;52.530;13.194;2023-05-07T14:07:59;15.50;74.80
39875;DHT22;25547;52.530;13.194;2023-05-07T14:10:25;15.60;74.60
39875;DHT22;25547;52.530;13.194;2023-05-07T14:12:53;15.50;73.10
39875;DHT22;25547;52.530;13.194;2023-05-07T14:15:19;15.40;73.70
39875;DHT22;25547;52.530;13.194;2023-05-07T14:17:45;15.40;74.20
39875;DHT22;25547;52.530;13.194;2023-05-07T14:20:12;15.30;74.70
39875;DHT22;25547;52.530;13.194;2023-05-07T14:22:37;15.40;74.80
39875;DHT22;25547;52.530;13.194;2023-05-07T14:25:04;15.40;74.90
39875;DHT22;25547;52.530;13.194;2023-05-07T14:27:29;15.40;75.10
39875;DHT22;25547;52.530;13.194;2023-05-07T14:29:57;15.40;74.20
39875;DHT22;25547;52.530;13.194;2023-05-07T14:32:23;15.40;72.90
39875;DHT22;25547;52.530;13.194;2023-05-07T14:34:51;15.50;72.70
39875;DHT22;25547;52.530;13.194;2023-05-07T14:37:16;15.40;72.50
39875;DHT22;25547;52.530;13.194;2023-05-07T14:39:47;15.40;71.80
39875;DHT22;25547;52.530;13.194;2023-05-07T14:42:12;15.50;71.90
39875;DHT22;25547;52.530;13.194;2023-05-07T14:44:38;15.60;71.90
39875;DHT22;25547;52.530;13.194;2023-05-07T14:47:08;15.70;72.80
39875;DHT22;25547;52.530;13.194;2023-05-07T14:49:36;15.60;72.60
39875;DHT22;25547;52.530;13.194;2023-05-07T14:52:02;15.70;73.00
39875;DHT22;25547;52.530;13.194;2023-05-07T14:54:28;15.70;72.00
39875;DHT22;25547;52.530;13.194;2023-05-07T14:56:54;15.90;72.00
39875;DHT22;25547;52.530;13.194;2023-05-07T14:59:21;15.90;71.80
39875;DHT22;25547;52.530;13.194;2023-05-07T15:01:47;16.00;72.20
39875;DHT22;25547;52.530;13.194;2023-05-07T15:04:13;16.10;71.60
39875;DHT22;25547;52.530;13.194;2023-05-07T15:06:39;16.30;72.50
39875;DHT22;25547;52.530;13.194;2023-05-07T15:09:05;16.10;71.60
39875;DHT22;25547;52.530;13.194;2023-05-07T15:11:30;16.00;72.20
39875;DHT22;25547;52.530;13.194;2023-05-07T15:13:58;16.20;72.60
39875;DHT22;25547;52.530;13.194;2023-05-07T15:16:26;16.20;72.30
39875;DHT22;25547;52.530;13.194;2023-05-07T15:18:52;16.20;72.60
39875;DHT22;25547;52.530;13.194;2023-05-07T15:21:17;16.30;72.00
39875;DHT22;25547;52.530;13.194;2023-05-07T15:23:45;16.20;70.90
39875;DHT22;25547;52.530;13.194;2023-05-07T15:26:13;16.10;71.50
39875;DHT22;25547;52.530;13.194;2023-05-07T15:28:39;16.10;71.70
39875;DHT22;25547;52.530;13.194;2023-05-07T15:31:04;16.10;71.80
39875;DHT22;25547;52.530;13.194;2023-05-07T15:33:33;16.10;72.00
39875;DHT22;25547;52.530;13.194;2023-05-07T15:35:59;16.10;71.40
39875;DHT22;25547;52.530;13.194;2023-05-07T15:38:27;16.00;71.50
39875;DHT22;25547;52.530;13.194;2023-05-07T15:40:52;15.70;71.60
39875;DHT22;25547;52.530;13.194;2023-05-07T15:43:18;15.60;71.80